Time;durP1;ratioP1;P1;durP2;ratioP2;P2;SDS_P1;SDS_P2;PMS_P1;PMS_P2;Temp;Humidity;BMP_temperature;BMP_pressure;BME280_temperature;BME280_humidity;BME280_pressure;Samples;Min_cycle;Max_cycle;Signal;HPM_P1;HPM_P2
2023/06/12 00:01:44;;;;;;;9.68;5.38;;;22.60;61.00;;;;;;5020999;28;20048;-78
2023/06/12 00:04:10;;;;;;;8.38;5.68;;;22.50;61.20;;;;;;5025303;28;20608;-77
2023/06/12 00:06:37;;;;;;;9.40;5.00;;;22.50;61.30;;;;;;5020058;28;20021;-80
2023/06/12 00:09:04;;;;;;;5.68;4.85;;;22.50;61.40;;;;;;5031365;28;20040;-77
2023/06/12 00:11:30;;;;;;;7.55;5.45;;;22.40;61.50;;;;;;5016393;28;20021;-78
2023/06/12 00:13:56;;;;;;;6.78;4.70;;;22.40;61.70;;;;;;5020885;28;20036;-83
2023/06/12 00:16:24;;;;;;;6.05;5.07;;;22.40;61.80;;;;;;5156654;22;20053;-79
2023/06/12 00:18:49;;;;;;;9.55;5.28;;;22.30;62.70;;;;;;4996358;28;20061;-79
2023/06/12 00:21:15;;;;;;;10.98;5.38;;;22.30;61.90;;;;;;4999208;28;20048;-80
2023/06/12 00:23:41;;;;;;;8.35;5.18;;;22.30;62.00;;;;;;4995083;28;20030;-80
2023/06/12 00:26:08;;;;;;;7.80;5.20;;;22.20;62.30;;;;;;5012363;28;20026;-79
2023/06/12 00:28:36;;;;;;;9.45;4.90;;;22.20;62.50;;;;;;4998643;28;20057;-84
2023/06/12 00:31:02;;;;;;;11.75;4.85;;;22.20;62.50;;;;;;5012365;28;20076;-84
2023/06/12 00:33:28;;;;;;;6.93;5.03;;;22.20;62.60;;;;;;5009258;28;20021;-79
2023/06/12 00:35:54;;;;;;;5.38;4.88;;;22.10;62.60;;;;;;4994303;28;20041;-79
2023/06/12 00:38:20;;;;;;;6.03;5.38;;;22.10;62.70;;;;;;5012144;28;20034;-79
2023/06/12 00:40:46;;;;;;;6.93;4.70;;;22.00;62.80;;;;;;4991279;28;20033;-79
2023/06/12 00:43:12;;;;;;;5.30;4.80;;;22.00;62.90;;;;;;5009007;28;20014;-79
2023/06/12 00:45:37;;;;;;;10.32;4.88;;;22.00;62.90;;;;;;5010606;28;20017;-84
2023/06/12 00:48:05;;;;;;;13.23;5.05;;;22.00;63.10;;;;;;5018344;28;20056;-82
2023/06/12 00:50:32;;;;;;;5.55;5.05;;;21.90;63.20;;;;;;5035847;28;20069;-80
2023/06/12 00:53:01;;;;;;;5.20;4.70;;;21.90;63.10;;;;;;5021327;28;20053;-80
2023/06/12 00:55:31;;;;;;;6.30;4.78;;;21.90;63.20;;;;;;5036933;28;20042;-82
2023/06/12 00:57:58;;;;;;;6.30;5.35;;;21.90;63.20;;;;;;5032056;28;20094;-86
2023/06/12 01:00:25;;;;;;;9.27;5.22;;;21.90;63.40;;;;;;5001697;28;20136;-79
2023/06/12 01:02:54;;;;;;;9.05;5.28;;;21.80;63.50;;;;;;5008489;28;20072;-85
2023/06/12 01:05:32;;;;;;;5.93;4.78;;;21.80;63.50;;;;;;5012491;28;20064;-79
2023/06/12 01:08:18;;;;;;;10.27;5.68;;;21.80;63.60;;;;;;5008861;28;20026;-79
2023/06/12 01:10:59;;;;;;;5.90;4.90;;;21.70;63.60;;;;;;5011334;28;20057;-79
2023/06/12 01:13:25;;;;;;;7.95;5.10;;;21.70;63.60;;;;;;5014708;28;20017;-83
2023/06/12 01:15:51;;;;;;;7.78;5.18;;;21.60;63.60;;;;;;5011526;28;20138;-80
2023/06/12 01:18:20;;;;;;;6.47;4.93;;;21.60;63.80;;;;;;4993495;28;20014;-79
2023/06/12 01:20:46;;;;;;;10.32;4.90;;;21.60;63.80;;;;;;5012360;28;20069;-80
2023/06/12 01:23:18;;;;;;;5.70;4.75;;;21.60;63.80;;;;;;4996509;28;20068;-80
2023/06/12 01:25:49;;;;;;;6.23;5.20;;;21.50;63.80;;;;;;5014590;28;20029;-80
2023/06/12 01:28:21;;;;;;;6.20;5.22;;;21.50;64.20;;;;;;4997538;28;20029;-83
2023/06/12 01:31:08;;;;;;;6.68;4.85;;;21.40;64.10;;;;;;4996610;28;20025;-82
2023/06/12 01:33:38;;;;;;;7.72;5.60;;;21.40;64.50;;;;;;5017367;28;20022;-81
2023/06/12 01:36:10;;;;;;;8.20;5.22;;;21.40;64.40;;;;;;4997275;28;20021;-84
2023/06/12 01:38:38;;;;;;;6.40;5.17;;;21.30;64.50;;;;;;5001911;28;20018;-85
2023/06/12 01:41:06;;;;;;;6.88;5.20;;;21.30;64.60;;;;;;5013656;28;20033;-85
2023/06/12 01:43:32;;;;;;;5.88;4.97;;;21.30;64.50;;;;;;5016560;28;20032;-85
2023/06/12 01:45:57;;;;;;;11.27;4.90;;;21.30;64.70;;;;;;5011763;28;20017;-84
2023/06/12 01:48:23;;;;;;;10.20;5.10;;;21.20;64.80;;;;;;5009480;28;20080;-83
2023/06/12 01:50:49;;;;;;;6.70;4.82;;;21.20;64.80;;;;;;5001450;28;20069;-83
2023/06/12 01:53:15;;;;;;;5.78;4.82;;;21.20;65.10;;;;;;5012954;28;20052;-84
2023/06/12 01:55:41;;;;;;;6.65;4.82;;;21.10;65.10;;;;;;4997772;28;20037;-84
2023/06/12 01:58:08;;;;;;;6.72;4.95;;;21.10;65.20;;;;;;5015574;28;20028;-84
2023/06/12 02:00:35;;;;;;;8.93;5.18;;;21.00;65.60;;;;;;5011551;28;20024;-83
2023/06/12 02:03:01;;;;;;;16.02;5.30;;;20.90;65.90;;;;;;4997618;28;20502;-85
2023/06/12 02:05:27;;;;;;;7.35;5.10;;;20.90;65.80;;;;;;5012921;28;20472;-82
2023/06/12 02:07:52;;;;;;;8.00;5.05;;;20.80;66.10;;;;;;5012006;28;20205;-79
2023/06/12 02:10:18;;;;;;;8.60;4.72;;;20.80;66.20;;;;;;5010666;28;20026;-84
2023/06/12 02:12:44;;;;;;;8.18;5.05;;;20.80;66.10;;;;;;4999176;28;20063;-85
2023/06/12 02:15:12;;;;;;;5.70;5.10;;;20.80;66.00;;;;;;5012604;28;20037;-85
2023/06/12 02:17:40;;;;;;;7.30;5.28;;;20.80;66.10;;;;;;5012760;28;20029;-80
2023/06/12 02:20:07;;;;;;;5.88;4.65;;;20.80;66.50;;;;;;4994116;28;20061;-79
2023/06/12 02:22:32;;;;;;;10.32;5.00;;;20.80;65.80;;;;;;5001593;28;20029;-79
2023/06/12 02:24:58;;;;;;;6.70;4.55;;;20.70;66.80;;;;;;5016060;28;20444;-79
2023/06/12 02:27:23;;;;;;;6.38;4.65;;;20.60;66.50;;;;;;5016100;28;20021;-79
2023/06/12 02:29:49;;;;;;;7.03;5.00;;;20.50;66.80;;;;;;4995384;28;20521;-79
2023/06/12 02:32:15;;;;;;;9.65;4.80;;;20.50;67.00;;;;;;5013783;28;20029;-80
2023/06/12 02:34:40;;;;;;;7.57;5.13;;;20.50;67.50;;;;;;4996063;28;20172;-80
2023/06/12 02:37:09;;;;;;;10.57;4.57;;;20.50;67.40;;;;;;5010884;28;20486;-79
2023/06/12 02:39:35;;;;;;;7.18;4.57;;;20.40;67.20;;;;;;5001204;28;20260;-80
2023/06/12 02:42:01;;;;;;;8.40;5.35;;;20.40;67.50;;;;;;5010316;28;20117;-80
2023/06/12 02:44:27;;;;;;;5.53;4.72;;;20.30;67.30;;;;;;5013344;28;20535;-80
2023/06/12 02:46:57;;;;;;;6.57;5.35;;;20.30;67.10;;;;;;5013445;28;20537;-79
2023/06/12 02:49:27;;;;;;;14.63;5.07;;;20.30;67.40;;;;;;5001163;28;20425;-80
2023/06/12 02:51:52;;;;;;;8.82;4.90;;;20.20;67.50;;;;;;5000261;28;20022;-80
2023/06/12 02:54:19;;;;;;;8.30;5.07;;;20.20;67.50;;;;;;5015269;28;20128;-81
2023/06/12 02:56:45;;;;;;;7.78;4.90;;;20.20;67.80;;;;;;5014603;28;20028;-83
2023/06/12 02:59:16;;;;;;;5.35;4.85;;;20.20;67.80;;;;;;5013254;28;20025;-83
2023/06/12 03:01:43;;;;;;;5.28;4.72;;;20.10;67.90;;;;;;5013223;28;20067;-84
2023/06/12 03:04:15;;;;;;;8.93;5.07;;;20.10;68.30;;;;;;5013075;28;20025;-80
2023/06/12 03:06:44;;;;;;;5.88;5.28;;;20.10;68.20;;;;;;5014609;28;20108;-80
2023/06/12 03:09:11;;;;;;;6.35;4.65;;;20.10;68.60;;;;;;5010350;28;20021;-80
2023/06/12 03:11:36;;;;;;;8.02;5.28;;;20.10;68.10;;;;;;5015208;28;20029;-80
2023/06/12 03:14:03;;;;;;;5.40;4.90;;;20.10;68.90;;;;;;5015454;28;20029;-81
2023/06/12 03:16:30;;;;;;;7.88;4.88;;;20.10;68.90;;;;;;5015227;28;20489;-80
2023/06/12 03:18:57;;;;;;;5.60;4.80;;;20.10;68.90;;;;;;5001764;28;20440;-80
2023/06/12 03:21:22;;;;;;;7.07;5.13;;;20.10;68.90;;;;;;4997002;28;20054;-83
2023/06/12 03:23:48;;;;;;;5.97;5.38;;;20.00;69.20;;;;;;5013977;28;20061;-84
2023/06/12 03:26:14;;;;;;;7.70;5.47;;;19.90;69.50;;;;;;5000878;28;20044;-83
2023/06/12 03:28:40;;;;;;;9.98;5.47;;;19.90;69.50;;;;;;5011383;28;20030;-83
2023/06/12 03:31:05;;;;;;;7.55;5.30;;;19.90;69.30;;;;;;5013146;28;20032;-83
2023/06/12 03:33:31;;;;;;;7.93;4.88;;;19.90;69.20;;;;;;5015970;28;20464;-84
2023/06/12 03:35:57;;;;;;;9.00;5.15;;;19.90;69.10;;;;;;5016059;28;20048;-83
2023/06/12 03:38:23;;;;;;;7.00;4.63;;;19.90;69.20;;;;;;5014988;28;20023;-83
2023/06/12 03:40:48;;;;;;;5.78;5.03;;;19.80;69.40;;;;;;5003090;28;20025;-84
2023/06/12 03:43:14;;;;;;;9.25;5.28;;;19.80;69.40;;;;;;5016009;28;20029;-83
2023/06/12 03:45:39;;;;;;;11.23;5.32;;;19.80;69.60;;;;;;4999383;28;20121;-80
2023/06/12 03:48:05;;;;;;;6.07;4.72;;;19.80;69.60;;;;;;5009599;28;20052;-84
2023/06/12 03:50:31;;;;;;;6.65;5.20;;;19.80;69.50;;;;;;5011056;28;20207;-84
2023/06/12 03:52:56;;;;;;;9.45;5.25;;;19.80;69.50;;;;;;5015454;28;20582;-84
2023/06/12 03:55:23;;;;;;;7.63;5.05;;;19.80;69.30;;;;;;5011991;28;20038;-84
2023/06/12 03:57:50;;;;;;;16.25;5.28;;;19.80;69.50;;;;;;5013090;28;20500;-84
2023/06/12 04:00:16;;;;;;;10.50;5.28;;;19.80;69.20;;;;;;5001305;28;20481;-84
2023/06/12 04:02:42;;;;;;;5.25;4.68;;;19.80;69.50;;;;;;4993048;28;20096;-84
2023/06/12 04:05:08;;;;;;;7.35;5.30;;;19.90;69.50;;;;;;4990862;28;20017;-84
2023/06/12 04:07:37;;;;;;;10.32;5.55;;;19.90;68.90;;;;;;4999115;28;20041;-83
2023/06/12 04:10:04;;;;;;;11.00;5.43;;;20.00;68.50;;;;;;5010269;28;20049;-82
2023/06/12 04:12:30;;;;;;;8.98;4.95;;;19.90;68.90;;;;;;4998282;28;20021;-84
2023/06/12 04:14:56;;;;;;;13.98;6.47;;;20.00;68.70;;;;;;4996372;28;20537;-84
2023/06/12 04:17:21;;;;;;;6.97;5.28;;;20.10;68.50;;;;;;4993142;28;20086;-84
2023/06/12 04:19:49;;;;;;;9.20;5.45;;;20.10;68.50;;;;;;5010292;28;20516;-79
2023/06/12 04:22:16;;;;;;;9.68;4.22;;;20.10;68.70;;;;;;5009456;28;20083;-79
2023/06/12 04:24:43;;;;;;;8.48;5.28;;;20.10;68.90;;;;;;5010124;28;20025;-81
2023/06/12 04:27:10;;;;;;;11.48;5.13;;;20.20;69.00;;;;;;5014461;28;20013;-80
2023/06/12 04:29:40;;;;;;;11.57;5.57;;;20.30;69.00;;;;;;4998418;28;20129;-83
2023/06/12 04:32:07;;;;;;;16.42;5.45;;;20.30;69.00;;;;;;4995726;28;20087;-86
2023/06/12 04:34:43;;;;;;;11.77;4.60;;;20.40;68.90;;;;;;5001838;28;20181;-84
2023/06/12 04:37:13;;;;;;;11.38;5.47;;;20.40;68.50;;;;;;5016201;28;20428;-83
2023/06/12 04:39:40;;;;;;;10.65;5.07;;;20.50;68.80;;;;;;4996543;28;20026;-84
2023/06/12 04:42:10;;;;;;;10.73;5.22;;;20.60;68.10;;;;;;4991466;28;20398;-85
2023/06/12 04:44:37;;;;;;;8.77;5.30;;;20.60;67.80;;;;;;4998018;28;20243;-84
2023/06/12 04:47:11;;;;;;;9.98;5.30;;;20.70;67.80;;;;;;5014106;28;20532;-80
2023/06/12 04:49:40;;;;;;;9.38;5.28;;;20.70;67.40;;;;;;4995155;28;20624;-85
2023/06/12 04:52:12;;;;;;;13.02;5.72;;;20.70;67.20;;;;;;5011661;28;20022;-85
2023/06/12 04:54:41;;;;;;;10.85;5.22;;;20.70;66.90;;;;;;4997251;28;20140;-82
2023/06/12 04:57:18;;;;;;;8.35;5.20;;;20.80;66.80;;;;;;5014294;28;20495;-84
2023/06/12 04:59:45;;;;;;;11.25;5.82;;;20.90;66.60;;;;;;5027143;28;20060;-82
2023/06/12 05:02:11;;;;;;;7.65;5.43;;;21.00;67.40;;;;;;5019932;28;20029;-84
2023/06/12 05:04:37;;;;;;;13.10;5.75;;;21.00;66.10;;;;;;5011855;28;20448;-84
2023/06/12 05:07:14;;;;;;;14.88;5.68;;;21.00;66.50;;;;;;5012771;28;20048;-83
2023/06/12 05:09:40;;;;;;;10.20;5.28;;;21.10;66.90;;;;;;5011107;28;20025;-84
2023/06/12 05:12:06;;;;;;;8.25;5.88;;;21.10;66.80;;;;;;4996380;28;20026;-84
2023/06/12 05:14:34;;;;;;;15.50;5.50;;;21.10;67.20;;;;;;5011707;28;20095;-84
2023/06/12 05:17:00;;;;;;;7.65;5.68;;;21.10;67.40;;;;;;4996241;28;20045;-84
2023/06/12 05:19:26;;;;;;;7.10;5.78;;;21.10;67.40;;;;;;4994704;28;20033;-83
2023/06/12 05:21:55;;;;;;;11.93;5.68;;;21.20;67.60;;;;;;5011909;28;20044;-84
2023/06/12 05:24:21;;;;;;;12.05;5.90;;;21.20;67.60;;;;;;4996809;28;20100;-84
2023/06/12 05:26:47;;;;;;;8.70;5.38;;;21.20;67.60;;;;;;5014836;28;20109;-83
2023/06/12 05:29:15;;;;;;;8.00;5.20;;;21.30;68.20;;;;;;4995921;28;20017;-82
2023/06/12 05:31:40;;;;;;;13.70;5.88;;;21.40;68.10;;;;;;5013546;28;20113;-84
2023/06/12 05:34:06;;;;;;;10.55;5.50;;;21.50;67.70;;;;;;4993211;28;20405;-84
2023/06/12 05:36:35;;;;;;;11.25;4.90;;;21.50;67.50;;;;;;4994986;28;20072;-83
2023/06/12 05:39:01;;;;;;;7.47;5.28;;;21.50;67.60;;;;;;4990557;28;20117;-83
2023/06/12 05:41:26;;;;;;;8.32;5.15;;;21.60;68.00;;;;;;5012356;28;20698;-85
2023/06/12 05:43:52;;;;;;;5.75;4.88;;;21.70;67.70;;;;;;5012963;28;20050;-83
2023/06/12 05:46:18;;;;;;;9.07;5.60;;;21.80;67.30;;;;;;5009672;28;20118;-83
2023/06/12 05:48:43;;;;;;;9.93;5.50;;;21.90;66.50;;;;;;4999500;28;20042;-82
2023/06/12 05:51:09;;;;;;;7.68;5.10;;;22.00;66.60;;;;;;5011563;28;20207;-84
2023/06/12 05:53:35;;;;;;;8.27;5.30;;;22.00;65.80;;;;;;5013127;28;20108;-83
2023/06/12 05:56:01;;;;;;;8.43;5.65;;;22.00;65.10;;;;;;4991261;28;20033;-84
2023/06/12 05:58:29;;;;;;;7.57;4.70;;;22.10;64.70;;;;;;5008184;28;20125;-81
2023/06/12 06:00:55;;;;;;;9.00;5.90;;;22.20;65.00;;;;;;5012586;28;20450;-83
2023/06/12 06:03:23;;;;;;;8.55;5.38;;;22.30;64.70;;;;;;5014975;28;20025;-84
2023/06/12 06:05:49;;;;;;;12.57;5.45;;;22.50;64.80;;;;;;5011207;28;20157;-83
2023/06/12 06:08:15;;;;;;;11.32;6.10;;;22.60;65.30;;;;;;5009534;28;20026;-84
2023/06/12 06:10:41;;;;;;;10.98;5.32;;;22.50;64.40;;;;;;5017025;28;20021;-84
2023/06/12 06:13:07;;;;;;;8.15;5.38;;;22.60;64.40;;;;;;5003424;28;20243;-83
2023/06/12 06:15:33;;;;;;;7.78;5.25;;;22.70;64.90;;;;;;5034896;28;20038;-82
2023/06/12 06:17:58;;;;;;;9.07;4.95;;;22.80;65.10;;;;;;4998234;28;20036;-84
2023/06/12 06:20:26;;;;;;;16.13;5.50;;;22.90;64.50;;;;;;5002732;28;20029;-88
2023/06/12 06:22:52;;;;;;;12.25;5.35;;;23.10;64.40;;;;;;5022312;28;20038;-82
2023/06/12 06:25:17;;;;;;;7.63;5.93;;;23.20;63.90;;;;;;5013933;28;20471;-81
2023/06/12 06:27:43;;;;;;;16.65;5.97;;;23.30;63.80;;;;;;5014242;28;20021;-82
2023/06/12 06:30:11;;;;;;;16.00;6.20;;;23.40;63.90;;;;;;5012162;28;20026;-82
2023/06/12 06:32:37;;;;;;;8.93;5.85;;;23.50;63.50;;;;;;5015129;28;20049;-80
2023/06/12 06:35:03;;;;;;;9.38;5.45;;;23.70;64.20;;;;;;4999973;28;20052;-86
2023/06/12 06:37:29;;;;;;;8.30;5.22;;;23.80;63.30;;;;;;5001011;28;20067;-85
2023/06/12 06:39:55;;;;;;;6.13;5.50;;;23.90;63.40;;;;;;5016909;28;20025;-87
2023/06/12 06:42:20;;;;;;;7.40;5.15;;;24.00;62.70;;;;;;5000167;28;20730;-79
2023/06/12 06:44:46;;;;;;;9.15;5.55;;;24.00;63.90;;;;;;5013274;28;20026;-83
2023/06/12 06:47:11;;;;;;;13.65;5.38;;;24.10;63.20;;;;;;5012112;28;20026;-84
2023/06/12 06:49:38;;;;;;;11.65;5.72;;;24.30;63.60;;;;;;5015701;28;21109;-84
2023/06/12 06:52:04;;;;;;;7.43;5.95;;;24.40;62.90;;;;;;5021821;28;20021;-80
2023/06/12 06:54:30;;;;;;;6.72;6.00;;;24.40;62.90;;;;;;5017983;28;20072;-80
2023/06/12 06:56:56;;;;;;;10.50;5.80;;;24.50;63.00;;;;;;5005030;28;20037;-85
2023/06/12 06:59:23;;;;;;;10.43;5.57;;;24.50;62.90;;;;;;5019589;28;20025;-82
2023/06/12 07:01:49;;;;;;;10.45;5.65;;;24.70;62.80;;;;;;5006932;28;20117;-76
2023/06/12 07:04:17;;;;;;;7.45;5.45;;;24.70;62.50;;;;;;5021265;28;20090;-79
2023/06/12 07:06:43;;;;;;;7.53;5.97;;;24.80;62.70;;;;;;4997609;28;20413;-83
2023/06/12 07:09:11;;;;;;;7.47;6.40;;;24.90;61.50;;;;;;4996880;28;20021;-80
2023/06/12 07:11:37;;;;;;;6.18;5.57;;;25.00;62.30;;;;;;5001953;28;20010;-82
2023/06/12 07:14:02;;;;;;;10.73;5.93;;;25.10;61.20;;;;;;5012428;28;20375;-86
2023/06/12 07:16:28;;;;;;;6.43;5.45;;;25.20;61.10;;;;;;5023767;28;20087;-82
2023/06/12 07:19:04;;;;;;;6.38;5.78;;;25.30;60.60;;;;;;5009214;28;20049;-79
2023/06/12 07:21:33;;;;;;;9.10;5.60;;;25.50;60.70;;;;;;5016517;28;20025;-76
2023/06/12 07:23:59;;;;;;;9.18;5.50;;;25.60;60.80;;;;;;5012328;28;20049;-81
2023/06/12 07:26:25;;;;;;;10.55;5.88;;;25.80;60.40;;;;;;5005200;28;20401;-77
2023/06/12 07:28:50;;;;;;;6.78;5.65;;;26.10;58.90;;;;;;5006687;28;20049;-78
2023/06/12 07:31:19;;;;;;;8.55;5.70;;;26.20;58.30;;;;;;5020531;28;20135;-76
2023/06/12 07:33:50;;;;;;;8.00;5.72;;;26.40;57.90;;;;;;5008715;28;20079;-76
2023/06/12 07:36:16;;;;;;;9.75;5.78;;;26.40;57.50;;;;;;5011488;28;20481;-78
2023/06/12 07:38:42;;;;;;;6.97;5.95;;;26.50;57.90;;;;;;4998193;28;20032;-77
2023/06/12 07:41:09;;;;;;;7.68;5.40;;;26.50;57.90;;;;;;5011476;28;20028;-78
2023/06/12 07:43:35;;;;;;;8.82;5.43;;;26.70;57.40;;;;;;4995518;28;20018;-81
2023/06/12 07:46:01;;;;;;;109.18;44.60;;;26.90;57.40;;;;;;5013153;28;20021;-80
2023/06/12 07:48:27;;;;;;;8.60;5.80;;;26.90;56.30;;;;;;5010017;28;20108;-80
2023/06/12 07:50:53;;;;;;;6.53;5.47;;;27.10;56.60;;;;;;4993064;28;20132;-79
2023/06/12 07:53:18;;;;;;;10.68;5.93;;;27.10;55.80;;;;;;5009432;28;20026;-78
2023/06/12 07:55:44;;;;;;;9.68;5.90;;;27.20;55.60;;;;;;4994065;28;20041;-83
2023/06/12 07:58:10;;;;;;;119.40;56.38;;;27.20;56.20;;;;;;5001267;28;20041;-76
2023/06/12 08:00:37;;;;;;;14.57;8.77;;;27.40;55.80;;;;;;4998991;28;20029;-79
2023/06/12 08:03:03;;;;;;;78.10;30.77;;;27.50;55.30;;;;;;5012577;28;20033;-77
2023/06/12 08:05:31;;;;;;;7.15;5.85;;;27.60;54.90;;;;;;5023292;28;20033;-80
2023/06/12 08:07:58;;;;;;;8.82;6.28;;;27.70;54.30;;;;;;5139757;22;20048;-81
2023/06/12 08:10:26;;;;;;;9.05;5.93;;;28.10;54.70;;;;;;5025060;28;20095;-83
2023/06/12 08:12:54;;;;;;;8.30;5.50;;;28.40;54.00;;;;;;5018823;28;20339;-80
2023/06/12 08:15:21;;;;;;;10.35;6.20;;;28.60;54.00;;;;;;5032462;28;20457;-79
2023/06/12 08:17:47;;;;;;;12.38;6.50;;;28.90;52.90;;;;;;5032217;28;20083;-81
2023/06/12 08:20:15;;;;;;;8.80;5.60;;;28.90;52.30;;;;;;5033639;28;20484;-78
2023/06/12 08:22:42;;;;;;;7.63;5.43;;;28.90;52.90;;;;;;5032987;28;20029;-83
2023/06/12 08:25:10;;;;;;;14.32;5.72;;;29.30;52.00;;;;;;5030048;28;20024;-79
2023/06/12 08:27:36;;;;;;;6.53;5.93;;;29.50;51.50;;;;;;5025542;28;20025;-79
2023/06/12 08:30:03;;;;;;;11.75;5.57;;;29.80;51.80;;;;;;5032692;28;20013;-80
2023/06/12 08:32:28;;;;;;;9.40;6.05;;;30.00;51.90;;;;;;5015434;28;20033;-79
2023/06/12 08:34:54;;;;;;;9.43;5.47;;;30.30;51.10;;;;;;5014928;28;20044;-80
2023/06/12 08:37:20;;;;;;;8.05;5.68;;;30.60;51.50;;;;;;5030983;28;20026;-79
2023/06/12 08:39:46;;;;;;;12.02;6.07;;;30.70;50.10;;;;;;5029290;28;20036;-79
2023/06/12 08:42:16;;;;;;;6.25;5.43;;;30.90;49.90;;;;;;5028796;28;20422;-79
2023/06/12 08:44:46;;;;;;;9.43;5.78;;;31.10;49.40;;;;;;5010561;28;20174;-79
2023/06/12 08:47:13;;;;;;;8.57;5.90;;;31.10;49.40;;;;;;5029597;28;20229;-80
2023/06/12 08:49:40;;;;;;;19.25;5.95;;;31.30;50.30;;;;;;5017608;28;20033;-80
2023/06/12 08:52:10;;;;;;;9.00;5.88;;;31.50;49.40;;;;;;5016938;28;20110;-80
2023/06/12 08:54:42;;;;;;;8.68;6.38;;;31.60;48.80;;;;;;5031731;28;20033;-80
2023/06/12 08:57:10;;;;;;;23.60;6.57;;;31.60;48.90;;;;;;5018535;28;20029;-80
2023/06/12 08:59:36;;;;;;;11.05;6.72;;;31.80;48.40;;;;;;5027454;28;20074;-80
2023/06/12 09:02:03;;;;;;;7.80;5.85;;;31.90;47.30;;;;;;5032914;28;20131;-81
2023/06/12 09:04:56;;;;;;;9.07;5.93;;;32.10;48.00;;;;;;5034472;28;20028;-78
2023/06/12 09:07:26;;;;;;;8.32;5.95;;;32.00;47.60;;;;;;5025050;28;20040;-79
2023/06/12 09:09:52;;;;;;;7.35;5.95;;;32.10;47.70;;;;;;5009804;28;20084;-79
2023/06/12 09:12:18;;;;;;;9.38;5.82;;;32.40;47.30;;;;;;5017609;28;20025;-77
2023/06/12 09:14:45;;;;;;;10.40;6.43;;;32.60;46.20;;;;;;5028369;28;20116;-81
2023/06/12 09:17:12;;;;;;;12.45;6.43;;;32.60;46.60;;;;;;5010677;28;20021;-78
2023/06/12 09:19:40;;;;;;;9.10;6.20;;;32.60;45.90;;;;;;5027808;28;20105;-81
2023/06/12 09:22:06;;;;;;;9.38;6.22;;;32.50;46.80;;;;;;5017643;28;20029;-79
2023/06/12 09:24:32;;;;;;;7.05;5.80;;;32.70;46.60;;;;;;5030816;28;20485;-78
2023/06/12 09:26:58;;;;;;;6.20;5.70;;;32.80;45.90;;;;;;5029290;28;20099;-80
2023/06/12 09:29:29;;;;;;;7.78;6.10;;;32.90;45.30;;;;;;5018166;28;20081;-80
2023/06/12 09:31:55;;;;;;;7.50;6.35;;;33.10;46.00;;;;;;5018265;28;20052;-83
2023/06/12 09:34:24;;;;;;;11.75;5.38;;;33.00;45.80;;;;;;5024255;28;20146;-80
2023/06/12 09:36:49;;;;;;;7.15;5.88;;;33.20;46.20;;;;;;5035506;28;20024;-82
2023/06/12 09:39:22;;;;;;;13.10;6.47;;;33.30;46.00;;;;;;5028595;28;20024;-82
2023/06/12 09:41:49;;;;;;;41.35;21.83;;;33.10;45.80;;;;;;5029630;28;20029;-80
2023/06/12 09:44:26;;;;;;;24.48;12.52;;;33.20;45.50;;;;;;5034765;28;20114;-82
2023/06/12 09:46:52;;;;;;;69.55;31.38;;;33.10;45.40;;;;;;5026156;28;20021;-82
2023/06/12 09:49:24;;;;;;;9.13;6.25;;;32.80;46.00;;;;;;5017895;28;20372;-85
2023/06/12 09:51:51;;;;;;;9.85;5.97;;;33.10;46.40;;;;;;5034082;28;20618;-79
2023/06/12 09:54:21;;;;;;;12.48;5.80;;;33.40;45.50;;;;;;5017967;28;20875;-79
2023/06/12 09:56:49;;;;;;;7.50;5.72;;;33.70;44.80;;;;;;5035304;28;20661;-80
2023/06/12 09:59:21;;;;;;;8.10;6.90;;;33.80;45.30;;;;;;5029308;28;20063;-82
2023/06/12 10:01:51;;;;;;;6.90;5.93;;;33.60;44.10;;;;;;5033070;28;20027;-79
2023/06/12 10:04:47;;;;;;;13.10;6.75;;;33.30;45.00;;;;;;5043202;28;20029;-78
2023/06/12 10:07:16;;;;;;;6.63;6.03;;;33.10;44.50;;;;;;5050971;28;20033;-79
2023/06/12 10:09:42;;;;;;;6.93;6.10;;;32.90;45.70;;;;;;5058621;28;20270;-78
2023/06/12 10:12:10;;;;;;;7.68;6.38;;;33.10;46.20;;;;;;5060702;28;20080;-79
2023/06/12 10:14:37;;;;;;;12.90;6.70;;;33.10;44.80;;;;;;5038633;28;20470;-79
2023/06/12 10:17:04;;;;;;;7.28;6.28;;;33.30;45.00;;;;;;5032569;28;20041;-78
2023/06/12 10:19:34;;;;;;;9.70;6.00;;;33.60;44.90;;;;;;5020449;28;20405;-80
2023/06/12 10:22:04;;;;;;;6.68;5.53;;;34.20;44.20;;;;;;5035180;28;20029;-79
2023/06/12 10:24:30;;;;;;;11.50;5.95;;;35.00;44.00;;;;;;5033285;28;20025;-78
2023/06/12 10:26:56;;;;;;;17.52;9.77;;;35.40;42.40;;;;;;5021612;28;20048;-79
2023/06/12 10:29:38;;;;;;;28.20;14.38;;;35.60;42.40;;;;;;5034507;28;20675;-80
2023/06/12 10:32:08;;;;;;;32.63;15.57;;;35.70;41.60;;;;;;5034964;28;20040;-83
2023/06/12 10:34:35;;;;;;;11.63;6.88;;;35.30;41.60;;;;;;5034590;28;20407;-80
2023/06/12 10:37:30;;;;;;;6.88;6.10;;;34.90;41.00;;;;;;5032953;28;20401;-78
2023/06/12 10:40:16;;;;;;;6.63;5.90;;;34.60;42.30;;;;;;5032240;28;20025;-79
2023/06/12 10:42:53;;;;;;;9.75;6.40;;;34.70;42.30;;;;;;5028267;28;20433;-80
2023/06/12 10:45:19;;;;;;;12.15;6.80;;;34.80;42.00;;;;;;5031586;28;20416;-80
2023/06/12 10:50:32;;;;;;;10.70;5.78;;;35.30;40.90;;;;;;5028901;28;20086;-78
2023/06/12 10:53:01;;;;;;;6.25;5.68;;;35.60;41.40;;;;;;5017310;28;20042;-80
2023/06/12 10:55:29;;;;;;;6.72;5.63;;;35.90;41.00;;;;;;5026118;28;20037;-82
2023/06/12 10:58:07;;;;;;;6.35;5.85;;;36.30;40.70;;;;;;5011216;28;20448;-82
2023/06/12 11:00:38;;;;;;;8.05;5.88;;;36.80;40.70;;;;;;5012176;28;20040;-82
2023/06/12 11:03:12;;;;;;;7.20;6.38;;;36.90;39.80;;;;;;5014364;28;20117;-84
2023/06/12 11:05:39;;;;;;;6.03;5.53;;;36.90;39.20;;;;;;5035540;28;20069;-81
2023/06/12 11:08:10;;;;;;;7.45;6.28;;;36.70;40.00;;;;;;5011009;28;20037;-82
2023/06/12 11:10:37;;;;;;;6.68;6.07;;;36.50;40.00;;;;;;5027717;28;20976;-81
2023/06/12 11:13:05;;;;;;;7.05;6.35;;;36.10;40.20;;;;;;5028686;28;20100;-86
2023/06/12 11:15:47;;;;;;;10.52;5.95;;;35.60;40.80;;;;;;5030686;28;20037;-80
2023/06/12 11:18:15;;;;;;;8.68;6.18;;;35.40;40.50;;;;;;5016399;28;20065;-79
2023/06/12 11:20:41;;;;;;;7.47;6.53;;;35.30;41.00;;;;;;5007687;28;20116;-81
2023/06/12 11:23:07;;;;;;;6.72;5.65;;;35.50;40.70;;;;;;5016890;28;20146;-81
2023/06/12 11:25:35;;;;;;;7.97;5.90;;;35.40;41.20;;;;;;5016110;28;20044;-79
2023/06/12 11:28:05;;;;;;;7.47;6.53;;;35.50;41.00;;;;;;5012092;28;20598;-80
2023/06/12 11:30:31;;;;;;;12.18;6.95;;;35.60;41.40;;;;;;5033535;28;20119;-87
2023/06/12 11:32:56;;;;;;;6.63;6.15;;;35.60;41.10;;;;;;5017206;28;20544;-82
2023/06/12 11:35:23;;;;;;;9.70;6.32;;;35.40;40.80;;;;;;5028683;28;20042;-85
2023/06/12 11:37:50;;;;;;;9.50;6.40;;;35.30;40.80;;;;;;5028155;28;20021;-85
2023/06/12 11:40:15;;;;;;;7.07;6.45;;;35.00;39.70;;;;;;5011718;28;20067;-86
2023/06/12 11:42:47;;;;;;;9.25;6.60;;;34.70;40.60;;;;;;5030045;28;20071;-80
2023/06/12 11:45:17;;;;;;;6.47;5.72;;;35.00;41.00;;;;;;5029481;28;20029;-81
2023/06/12 11:47:44;;;;;;;8.23;5.82;;;35.50;40.00;;;;;;5015168;28;20051;-81
2023/06/12 11:50:12;;;;;;;10.80;6.13;;;35.90;40.50;;;;;;5028001;28;20026;-81
2023/06/12 11:52:40;;;;;;;6.90;6.20;;;35.90;40.50;;;;;;5025972;28;20178;-81
2023/06/12 11:55:10;;;;;;;11.02;6.93;;;35.90;40.10;;;;;;5016055;28;20033;-81
2023/06/12 11:57:36;;;;;;;8.13;6.07;;;35.50;40.50;;;;;;5014825;28;20028;-81
2023/06/12 12:00:11;;;;;;;12.60;7.45;;;34.90;41.20;;;;;;5044442;28;20064;-80
2023/06/12 12:02:41;;;;;;;183.98;100.45;;;34.60;41.00;;;;;;5032600;28;20473;-80
2023/06/12 12:05:14;;;;;;;287.75;136.75;;;34.20;41.90;;;;;;5012873;28;20543;-82
2023/06/12 12:07:40;;;;;;;11.07;6.93;;;33.90;42.90;;;;;;5023173;28;20032;-81
2023/06/12 12:10:09;;;;;;;6.78;6.18;;;34.10;42.80;;;;;;5009283;28;20737;-82
2023/06/12 12:12:39;;;;;;;7.05;6.28;;;34.20;41.70;;;;;;5015363;28;20680;-82
2023/06/12 12:15:09;;;;;;;90.07;40.58;;;34.50;41.50;;;;;;5015840;28;20095;-80
2023/06/12 12:17:37;;;;;;;6.80;6.20;;;34.90;42.10;;;;;;5026588;28;20031;-81
2023/06/12 12:20:10;;;;;;;10.05;6.00;;;35.50;41.10;;;;;;5012689;28;20040;-86
2023/06/12 12:22:40;;;;;;;6.93;6.32;;;36.00;40.50;;;;;;5019031;28;20613;-82
2023/06/12 12:25:07;;;;;;;8.25;6.63;;;36.10;39.80;;;;;;5013852;28;20033;-85
2023/06/12 12:27:41;;;;;;;8.02;6.43;;;36.40;40.80;;;;;;5015111;28;20120;-80
2023/06/12 12:30:07;;;;;;;10.25;6.93;;;36.20;40.40;;;;;;5012257;28;20796;-82
2023/06/12 12:32:33;;;;;;;8.75;6.38;;;35.30;40.30;;;;;;5016291;28;20437;-82
2023/06/12 12:34:59;;;;;;;7.50;6.25;;;34.40;40.90;;;;;;5028199;28;20033;-79
2023/06/12 12:37:25;;;;;;;9.27;6.32;;;34.00;41.30;;;;;;5015599;28;20021;-78
2023/06/12 12:39:51;;;;;;;8.48;6.38;;;33.70;41.60;;;;;;5011354;28;20048;-81
2023/06/12 12:42:17;;;;;;;10.82;6.63;;;33.40;42.90;;;;;;5028084;28;20029;-77
2023/06/12 12:44:43;;;;;;;9.38;6.75;;;33.80;43.10;;;;;;5009198;28;20034;-77
2023/06/12 12:47:08;;;;;;;16.75;9.38;;;34.30;42.60;;;;;;5024918;28;20029;-77
2023/06/12 12:49:34;;;;;;;12.35;7.38;;;35.10;42.00;;;;;;5022805;28;20018;-76